Airfield :
LOGIN :

Register | Disclaimer

   EN    FR    IT 

 










Legend :    VFR   Marginal VFR   IFR   Intensive IFR   Very Intensive IFR
Visi :
Ceiling :
>= 8 km
>= 3000ft
5 to 8 km
1000 to 3000 ft
1500m to 5 km
500 to 1000 ft
800 to 1500m
200 to 500 ft
< 800m
< 200 ft
Symbols :   Thunderstorms  Fog  Heavy snow  Heavy precipitations  Wind > 20 kt
SIGMETs :     Misc.  Thunderstorms  Icing  Turbulence  Mountain Waves  Volcanic Ashes







- Airport Elevation : 287 ft
- IATA code : TOE


DTTZ - Nefta - Tozeur

CURRENT METAR :
  • 211900Z AUTO 15008KT NCD 26/06 Q1014

EXPIRED METARs :
  • 211800Z 15011KT 9999 FEW033 27/06 Q1014 NOSIG
  • 211700Z 15011KT 9999 FEW033 28/05 Q1014 NOSIG

TAF TAF DTTZ
Valid from the 21 at 18:00 until the 22 at 18:00 UTC


211700Z 2118/2218 12012KT 9999 FEW033
No reported NOTAMs for that airfield.
2 SIGMETs reported for the Tunis FIR (DTTC) :
 
Severe turbulence
DTTC SIGMET 01 VALID 211700/212100 DTTA
DTTC TUNIS FIR LOC SEV TURB FCST N OF LINE N3519 E00812 - N3547 E01047 ABV FL250 MOV EAST NC.=
Severe turbulence
DTTC AIRMET 01 VALID 211700/212100 DTTA
DTTC TUNIS FIR LOC SEV TURB FCST N OF LINE N3519 E00812 - N3547 E01047 ABV FL250 MOV EAST NC.=



MET'MAP, your aeronautical weather chart ! - Copyright ORBIFLY December 2007 - Disclaimer

ORBIFLY MET'MAP TEAM :

Programming & Development : Alexandra Zaïnal
Concept & Development : Baudouin d'Aumeries
Co-Development & Prog : Marc-Olivier Méhu
Technical & hardware support : Manuel Goepfert

Contact : metmap@orbifly.com




SOURCES & CREDITS :

   NOAA